Time;durP1;ratioP1;P1;durP2;ratioP2;P2;SDS_P1;SDS_P2;PMS_P1;PMS_P2;Temp;Humidity;BMP_temperature;BMP_pressure;BME280_temperature;BME280_humidity;BME280_pressure;Samples;Min_cycle;Max_cycle;Signal;HPM_P1;HPM_P2
2023/11/04 00:00:53;;;;;;;3.30;1.37;;;;;;;8.72;100.00;98708.00;6115519;28;20570;-84
2023/11/04 00:04:15;;;;;;;4.70;2.13;;;;;;;8.72;100.00;98683.84;6099360;29;20231;-80
2023/11/04 00:07:37;;;;;;;2.77;1.23;;;;;;;8.71;100.00;98697.44;6117414;28;20232;-79
2023/11/04 00:10:58;;;;;;;12.83;2.83;;;;;;;8.73;100.00;98690.91;6116823;28;20248;-78
2023/11/04 00:14:19;;;;;;;4.33;1.83;;;;;;;8.73;100.00;98693.59;6383146;23;20234;-80
2023/11/04 00:17:40;;;;;;;3.17;1.93;;;;;;;8.72;100.00;98702.63;6175428;28;20229;-80
2023/11/04 00:21:03;;;;;;;5.17;3.07;;;;;;;8.67;100.00;98699.66;6178423;28;20940;-80
2023/11/04 00:24:24;;;;;;;4.73;2.53;;;;;;;8.62;100.00;98699.34;6151262;28;20310;-79
2023/11/04 00:27:45;;;;;;;5.60;2.17;;;;;;;8.56;100.00;98704.59;6186605;28;20222;-79
2023/11/04 00:31:07;;;;;;;3.70;2.40;;;;;;;8.61;100.00;98702.22;6170152;28;20321;-80
2023/11/04 00:34:28;;;;;;;6.37;3.07;;;;;;;8.55;100.00;98701.06;6179628;28;20245;-81
2023/11/04 00:37:50;;;;;;;3.13;1.60;;;;;;;8.52;100.00;98695.22;6175330;28;20225;-80
2023/11/04 00:41:11;;;;;;;10.03;3.97;;;;;;;8.49;100.00;98695.59;6184327;28;20386;-80
2023/11/04 00:44:33;;;;;;;2.23;1.97;;;;;;;8.49;100.00;98698.28;6189912;28;20237;-78
2023/11/04 00:47:56;;;;;;;2.03;1.47;;;;;;;8.48;100.00;98710.84;6177917;28;20253;-84
2023/11/04 00:51:17;;;;;;;2.43;1.97;;;;;;;8.43;100.00;98704.31;6172860;28;20238;-78
2023/11/04 00:54:40;;;;;;;2.00;1.37;;;;;;;8.45;100.00;98702.31;6187382;28;20244;-77
2023/11/04 00:58:01;;;;;;;2.17;1.90;;;;;;;8.38;100.00;98717.44;6169552;28;20321;-78
2023/11/04 01:01:23;;;;;;;3.50;2.20;;;;;;;8.39;100.00;98705.69;6168902;28;20241;-77
2023/11/04 01:04:43;;;;;;;4.13;2.40;;;;;;;8.37;100.00;98702.34;6172053;28;20237;-79
2023/11/04 01:08:05;;;;;;;5.97;2.73;;;;;;;8.31;100.00;98700.34;6170710;28;20275;-78
2023/11/04 01:11:27;;;;;;;2.53;1.87;;;;;;;8.26;100.00;98700.06;6174588;28;20555;-80
2023/11/04 01:14:48;;;;;;;3.03;2.00;;;;;;;8.29;100.00;98695.19;6186849;28;20222;-78
2023/11/04 01:18:09;;;;;;;4.17;1.87;;;;;;;8.29;100.00;98697.03;6174999;28;20736;-77
2023/11/04 01:21:32;;;;;;;6.47;1.70;;;;;;;8.27;100.00;98696.34;6171402;28;20241;-78
2023/11/04 01:24:54;;;;;;;7.13;2.57;;;;;;;8.29;100.00;98695.19;6182019;28;20246;-80
2023/11/04 01:28:16;;;;;;;4.37;2.23;;;;;;;8.29;100.00;98702.38;6177611;28;20313;-81
2023/11/04 01:31:39;;;;;;;2.97;1.90;;;;;;;8.33;100.00;98691.13;6185319;28;20226;-78
2023/11/04 01:35:00;;;;;;;4.23;1.57;;;;;;;8.36;100.00;98698.00;6183147;28;20237;-80
2023/11/04 01:38:21;;;;;;;2.17;1.67;;;;;;;8.33;100.00;98688.44;6182159;28;20234;-79
2023/11/04 01:41:43;;;;;;;3.17;2.20;;;;;;;8.33;100.00;98669.66;6186523;28;20218;-78
2023/11/04 01:45:09;;;;;;;3.33;2.37;;;;;;;8.30;100.00;98678.06;6167556;28;20242;-78
2023/11/04 01:48:29;;;;;;;9.47;3.27;;;;;;;8.32;100.00;98678.72;6182420;28;20316;-78
2023/11/04 01:51:51;;;;;;;2.50;1.80;;;;;;;8.29;100.00;98683.59;6186385;28;20241;-79
2023/11/04 01:55:16;;;;;;;2.17;2.07;;;;;;;8.27;100.00;98683.78;6165266;28;20412;-78
2023/11/04 01:58:38;;;;;;;3.27;2.03;;;;;;;8.23;100.00;98681.59;6168564;28;20626;-79
2023/11/04 02:02:06;;;;;;;3.13;2.10;;;;;;;8.15;100.00;98678.94;6173001;28;20265;-80
2023/11/04 02:05:27;;;;;;;2.07;1.60;;;;;;;8.11;100.00;98677.63;6173555;28;20236;-77
2023/11/04 02:08:48;;;;;;;4.03;1.83;;;;;;;7.99;100.00;98667.25;6166504;28;20233;-77
2023/11/04 02:12:09;;;;;;;2.23;2.03;;;;;;;7.94;100.00;98664.28;6181070;28;20611;-78
2023/11/04 02:15:30;;;;;;;4.00;2.23;;;;;;;7.89;100.00;98653.22;6170081;28;20261;-78
2023/11/04 02:18:53;;;;;;;5.80;2.90;;;;;;;7.83;100.00;98669.19;6170577;28;20229;-78
2023/11/04 02:22:18;;;;;;;3.67;2.00;;;;;;;7.79;100.00;98665.16;6173163;28;20501;-78
2023/11/04 02:25:39;;;;;;;1.80;1.70;;;;;;;7.72;100.00;98656.97;6183719;28;20481;-78
2023/11/04 02:29:00;;;;;;;2.90;1.93;;;;;;;7.65;100.00;98665.88;6185547;28;20264;-79
2023/11/04 02:32:21;;;;;;;3.27;2.20;;;;;;;7.60;100.00;98669.09;6185199;28;20329;-78
2023/11/04 02:35:43;;;;;;;3.53;2.47;;;;;;;7.57;100.00;98664.03;6167680;28;20238;-78
2023/11/04 02:39:06;;;;;;;2.50;1.50;;;;;;;7.54;100.00;98667.09;6166413;28;20671;-78
2023/11/04 02:42:27;;;;;;;3.33;2.30;;;;;;;7.48;100.00;98662.41;6166269;28;20324;-79
2023/11/04 02:45:48;;;;;;;2.00;1.60;;;;;;;7.43;100.00;98670.13;6184347;28;20229;-78
2023/11/04 02:49:09;;;;;;;4.07;2.43;;;;;;;7.37;100.00;98668.13;6183472;28;20554;-78
2023/11/04 02:52:42;;;;;;;1.90;1.80;;;;;;;7.34;100.00;98667.63;6184068;28;20226;-77
2023/11/04 02:56:05;;;;;;;3.20;2.03;;;;;;;7.32;100.00;98665.13;6169357;28;20233;-78
2023/11/04 02:59:27;;;;;;;2.10;1.80;;;;;;;7.23;100.00;98667.00;6177920;28;20343;-78
2023/11/04 03:02:49;;;;;;;3.33;1.97;;;;;;;7.33;100.00;98671.31;6172701;28;21063;-78
2023/11/04 03:06:19;;;;;;;4.17;2.07;;;;;;;7.23;100.00;98672.34;6188549;28;20327;-77
2023/11/04 03:09:40;;;;;;;2.57;2.37;;;;;;;7.17;100.00;98674.88;6186346;28;20378;-78
2023/11/04 03:13:03;;;;;;;3.17;1.67;;;;;;;7.17;100.00;98667.66;6188113;28;20254;-79
2023/11/04 03:16:24;;;;;;;4.23;3.10;;;;;;;7.17;100.00;98670.34;6189905;28;20217;-79
2023/11/04 03:19:46;;;;;;;3.43;2.20;;;;;;;7.09;100.00;98666.84;6191651;28;20261;-78
2023/11/04 03:23:07;;;;;;;2.50;2.00;;;;;;;7.07;100.00;98672.34;6189614;28;20241;-78
2023/11/04 03:26:28;;;;;;;4.47;2.43;;;;;;;7.10;100.00;98663.13;6190430;28;20309;-78
2023/11/04 03:29:50;;;;;;;4.03;2.43;;;;;;;7.06;100.00;98667.16;6190532;28;20229;-78
2023/11/04 03:33:12;;;;;;;6.03;2.40;;;;;;;7.02;100.00;98664.00;6189963;28;20241;-79
2023/11/04 03:36:33;;;;;;;4.47;2.43;;;;;;;6.90;100.00;98664.50;6193673;28;20300;-77
2023/11/04 03:39:54;;;;;;;4.00;2.50;;;;;;;6.90;100.00;98657.31;6173021;28;20269;-78
2023/11/04 03:43:15;;;;;;;1.73;1.30;;;;;;;6.85;100.00;98650.75;6172961;28;20740;-78
2023/11/04 03:46:37;;;;;;;3.50;2.57;;;;;;;6.86;100.00;98653.25;6190872;28;20316;-77
2023/11/04 03:49:58;;;;;;;5.33;2.97;;;;;;;6.86;100.00;98649.75;6187958;28;20737;-77
2023/11/04 03:53:18;;;;;;;3.37;1.87;;;;;;;6.79;100.00;98652.28;6191501;28;20229;-78
2023/11/04 03:56:39;;;;;;;4.17;2.43;;;;;;;6.81;100.00;98644.06;6190798;28;20225;-78
2023/11/04 04:00:00;;;;;;;2.67;1.60;;;;;;;6.81;100.00;98639.53;6190880;28;20611;-79
2023/11/04 04:03:23;;;;;;;3.90;2.70;;;;;;;6.76;100.00;98638.38;6194332;28;20245;-78
2023/11/04 04:06:44;;;;;;;12.13;2.23;;;;;;;6.83;100.00;98639.38;6193514;28;20312;-78
2023/11/04 04:10:06;;;;;;;3.57;2.40;;;;;;;6.71;100.00;98630.84;6188426;28;20233;-77
2023/11/04 04:13:27;;;;;;;4.47;2.17;;;;;;;6.73;100.00;98636.03;6178065;28;20230;-78
2023/11/04 04:16:48;;;;;;;4.87;2.33;;;;;;;6.71;100.00;98638.88;6188188;28;20226;-78
2023/11/04 04:20:12;;;;;;;2.40;1.73;;;;;;;6.72;100.00;98631.66;6182688;28;20226;-78
2023/11/04 04:23:33;;;;;;;2.43;2.23;;;;;;;6.63;100.00;98638.88;6185390;28;20226;-78
2023/11/04 04:26:54;;;;;;;1.73;1.60;;;;;;;6.59;100.00;98626.00;6190131;28;20320;-80
2023/11/04 04:30:16;;;;;;;8.93;2.63;;;;;;;6.57;100.00;98634.16;6175274;28;20221;-78
2023/11/04 04:33:36;;;;;;;3.93;2.70;;;;;;;6.53;100.00;98622.13;6184927;28;20228;-77
2023/11/04 04:36:59;;;;;;;4.13;2.27;;;;;;;6.50;100.00;98622.47;6175985;28;20234;-78
2023/11/04 04:40:21;;;;;;;4.90;2.13;;;;;;;6.43;100.00;98624.13;6185088;28;22039;-79
2023/11/04 04:43:42;;;;;;;2.83;1.70;;;;;;;6.36;100.00;98615.91;6186942;28;20225;-79
2023/11/04 04:47:03;;;;;;;2.90;2.60;;;;;;;6.39;100.00;98618.28;6189203;28;20234;-79
2023/11/04 04:50:24;;;;;;;4.67;2.80;;;;;;;6.41;100.00;98616.28;6186405;28;20233;-78
2023/11/04 04:53:46;;;;;;;3.23;2.10;;;;;;;6.45;100.00;98612.25;6182793;28;20261;-79
2023/11/04 04:57:07;;;;;;;1.33;1.23;;;;;;;6.39;100.00;98610.25;6188816;28;20245;-79
2023/11/04 05:00:29;;;;;;;3.20;2.93;;;;;;;6.40;100.00;98611.09;6184536;28;20615;-78
2023/11/04 05:03:50;;;;;;;4.03;2.10;;;;;;;6.38;100.00;98605.06;6183168;28;20234;-78
2023/11/04 05:07:11;;;;;;;5.77;1.80;;;;;;;6.45;100.00;98608.75;6188580;28;20596;-78
2023/11/04 05:10:34;;;;;;;1.50;1.40;;;;;;;6.34;100.00;98609.09;6187832;28;20354;-79
2023/11/04 05:13:55;;;;;;;1.80;1.47;;;;;;;6.34;100.00;98612.56;6170591;28;20230;-78
2023/11/04 05:17:17;;;;;;;3.63;2.30;;;;;;;6.35;100.00;98608.91;6186203;28;20651;-80
2023/11/04 05:20:38;;;;;;;3.50;1.93;;;;;;;6.29;100.00;98604.22;6184401;28;20623;-78
2023/11/04 05:23:59;;;;;;;4.33;1.70;;;;;;;6.30;100.00;98600.53;6188207;28;20600;-79
2023/11/04 05:27:22;;;;;;;2.87;1.53;;;;;;;6.39;100.00;98601.38;6195796;28;20496;-78
2023/11/04 05:30:43;;;;;;;2.23;1.40;;;;;;;6.30;100.00;98597.84;6185573;28;20659;-79
2023/11/04 05:34:04;;;;;;;2.70;2.10;;;;;;;6.27;100.00;98594.69;6162682;28;20229;-78
2023/11/04 05:37:25;;;;;;;2.70;2.00;;;;;;;6.33;100.00;98599.38;6187956;28;20238;-78
2023/11/04 05:40:46;;;;;;;2.13;1.83;;;;;;;6.30;100.00;98597.84;6188335;28;20233;-78
2023/11/04 05:44:08;;;;;;;2.30;1.80;;;;;;;6.19;100.00;98597.34;6185466;28;20309;-79
2023/11/04 05:47:32;;;;;;;2.30;1.70;;;;;;;6.18;100.00;98596.50;6168898;28;20280;-79
2023/11/04 05:50:53;;;;;;;3.03;1.20;;;;;;;6.17;100.00;98591.31;6185686;28;20238;-79
2023/11/04 05:54:14;;;;;;;2.30;2.00;;;;;;;6.20;100.00;98590.97;6163876;28;20687;-79
2023/11/04 05:57:35;;;;;;;7.03;1.70;;;;;;;6.13;100.00;98600.69;6186193;28;21951;-80
2023/11/04 06:00:58;;;;;;;5.27;1.53;;;;;;;6.20;100.00;98599.00;6184039;28;20230;-78
2023/11/04 06:04:19;;;;;;;1.17;1.07;;;;;;;6.19;100.00;98589.31;6183536;28;20964;-78
2023/11/04 06:07:40;;;;;;;1.43;1.33;;;;;;;6.13;100.00;98585.44;6174293;28;20468;-78
2023/11/04 06:11:01;;;;;;;3.87;1.63;;;;;;;5.98;100.00;98591.63;6188890;28;20238;-77
2023/11/04 06:14:21;;;;;;;5.43;2.23;;;;;;;6.10;100.00;98590.28;6184768;28;20245;-78
2023/11/04 06:17:44;;;;;;;5.07;2.70;;;;;;;5.98;100.00;98595.13;6182024;28;20229;-77
2023/11/04 06:21:05;;;;;;;1.57;1.27;;;;;;;5.92;100.00;98592.28;6170559;28;20230;-78
2023/11/04 06:24:26;;;;;;;2.30;1.60;;;;;;;5.87;100.00;98591.91;6183173;28;20356;-78
2023/11/04 06:27:47;;;;;;;1.70;1.57;;;;;;;5.89;100.00;98595.25;6184780;28;20321;-78
2023/11/04 06:31:10;;;;;;;3.13;2.13;;;;;;;5.89;100.00;98588.06;6182087;28;20229;-78
2023/11/04 06:34:32;;;;;;;2.03;1.60;;;;;;;6.04;100.00;98582.94;6182841;28;20241;-79
2023/11/04 06:37:53;;;;;;;2.00;1.43;;;;;;;6.15;100.00;98582.63;6159221;28;20861;-79
2023/11/04 06:41:16;;;;;;;2.93;1.60;;;;;;;6.25;100.00;98585.97;6162002;28;20226;-78
2023/11/04 06:44:37;;;;;;;2.33;1.97;;;;;;;6.27;100.00;98574.13;6191552;28;20244;-79
2023/11/04 06:48:00;;;;;;;2.80;1.70;;;;;;;6.24;100.00;98569.09;6182544;28;20233;-79
2023/11/04 06:51:22;;;;;;;2.73;1.93;;;;;;;6.18;100.00;98564.41;6167307;28;20592;-79
2023/11/04 06:54:43;;;;;;;6.87;2.50;;;;;;;6.28;100.00;98564.22;6183088;28;20234;-81
2023/11/04 06:58:04;;;;;;;2.67;1.63;;;;;;;6.24;100.00;98566.41;6184927;28;20599;-79
2023/11/04 07:01:26;;;;;;;2.63;1.57;;;;;;;6.24;100.00;98555.72;6178061;28;20257;-79
2023/11/04 07:04:47;;;;;;;3.93;1.70;;;;;;;6.42;100.00;98564.41;6168037;28;20687;-79
2023/11/04 07:08:10;;;;;;;1.60;1.50;;;;;;;6.39;100.00;98563.91;6189478;28;20238;-79
2023/11/04 07:11:31;;;;;;;1.77;1.40;;;;;;;6.38;100.00;98554.22;6181513;28;20249;-79
2023/11/04 07:14:51;;;;;;;1.77;1.10;;;;;;;6.41;100.00;98554.72;6183270;28;20342;-79
2023/11/04 07:18:15;;;;;;;2.90;1.63;;;;;;;6.50;100.00;98557.41;6181271;28;20229;-79
2023/11/04 07:21:37;;;;;;;6.17;1.60;;;;;;;6.53;100.00;98557.88;6184536;28;20233;-78
2023/11/04 07:24:59;;;;;;;1.77;1.43;;;;;;;6.67;100.00;98556.41;6171047;28;20264;-78
2023/11/04 07:28:22;;;;;;;2.33;1.17;;;;;;;6.73;100.00;98550.38;6182013;28;20229;-79
2023/11/04 07:31:43;;;;;;;2.13;1.50;;;;;;;6.67;100.00;98546.53;6184987;28;20230;-80
2023/11/04 07:35:04;;;;;;;1.63;1.23;;;;;;;6.90;100.00;98544.81;6166090;28;20325;-79
2023/11/04 07:38:26;;;;;;;1.90;1.50;;;;;;;6.80;100.00;98551.38;6180086;28;20233;-79
2023/11/04 07:41:48;;;;;;;3.00;1.83;;;;;;;6.91;100.00;98540.28;6183576;28;20233;-78
2023/11/04 07:45:11;;;;;;;1.73;1.03;;;;;;;6.87;100.00;98550.50;6186118;28;20222;-80
2023/11/04 07:48:31;;;;;;;3.17;1.73;;;;;;;6.82;100.00;98549.34;6187725;28;20237;-80
2023/11/04 07:51:54;;;;;;;2.70;1.43;;;;;;;6.87;100.00;98538.94;6186114;28;20237;-80
2023/11/04 07:55:14;;;;;;;3.57;1.80;;;;;;;6.95;100.00;98537.09;6165074;28;20238;-79
2023/11/04 07:58:36;;;;;;;2.47;1.40;;;;;;;7.03;100.00;98539.75;6186794;28;20237;-78
2023/11/04 08:01:57;;;;;;;3.27;2.03;;;;;;;7.18;100.00;98532.69;6169323;28;20238;-79
2023/11/04 08:05:19;;;;;;;1.67;1.40;;;;;;;7.23;100.00;98522.28;6183044;28;20743;-78
2023/11/04 08:08:39;;;;;;;1.53;1.43;;;;;;;7.27;100.00;98520.09;6188629;28;20317;-78
2023/11/04 08:12:00;;;;;;;1.87;1.00;;;;;;;7.33;100.00;98523.91;6187830;28;20756;-78
2023/11/04 08:15:23;;;;;;;1.10;1.00;;;;;;;7.56;100.00;98514.09;6190737;28;20234;-79
2023/11/04 08:18:45;;;;;;;2.03;1.47;;;;;;;7.68;100.00;98497.44;6188425;28;20229;-78
2023/11/04 08:22:06;;;;;;;3.43;2.03;;;;;;;7.99;100.00;98508.13;6171354;28;20229;-80
2023/11/04 08:25:27;;;;;;;2.90;1.07;;;;;;;8.32;100.00;98493.53;6186519;28;20253;-80
2023/11/04 08:28:49;;;;;;;1.30;1.07;;;;;;;8.23;100.00;98502.63;6171311;28;20263;-84
2023/11/04 08:32:12;;;;;;;1.30;1.20;;;;;;;8.42;100.00;98504.00;6176873;28;20237;-79
2023/11/04 08:35:32;;;;;;;2.33;1.30;;;;;;;8.90;100.00;98486.59;6186470;28;20238;-79
2023/11/04 08:38:53;;;;;;;1.33;1.23;;;;;;;10.11;100.00;98475.09;6173189;28;20269;-81
2023/11/04 08:42:14;;;;;;;2.90;1.70;;;;;;;14.26;100.00;98467.31;6171698;28;20286;-78
2023/11/04 08:45:36;;;;;;;2.07;1.50;;;;;;;15.58;96.01;98449.63;6172325;28;20244;-79
2023/11/04 08:48:58;;;;;;;2.57;1.10;;;;;;;13.48;100.00;98472.09;6174266;28;20230;-78
2023/11/04 08:52:19;;;;;;;2.03;1.27;;;;;;;10.50;100.00;98470.06;6172059;28;20543;-79
2023/11/04 08:55:40;;;;;;;4.37;1.70;;;;;;;9.98;100.00;98474.91;6175869;28;20276;-78
2023/11/04 08:59:01;;;;;;;2.47;1.20;;;;;;;9.47;100.00;98474.16;6185036;28;20230;-77
2023/11/04 09:02:22;;;;;;;2.03;1.83;;;;;;;9.18;100.00;98472.31;6169962;28;20225;-78
2023/11/04 09:05:44;;;;;;;4.07;1.80;;;;;;;9.20;100.00;98470.25;6184667;28;20317;-78
2023/11/04 09:09:07;;;;;;;1.30;1.20;;;;;;;9.17;100.00;98470.66;6181878;28;20234;-79
2023/11/04 09:12:28;;;;;;;5.40;2.13;;;;;;;9.22;100.00;98462.84;6189470;28;20234;-79
2023/11/04 09:15:49;;;;;;;1.53;1.20;;;;;;;9.33;100.00;98472.28;6186187;28;20230;-79
2023/11/04 09:19:10;;;;;;;2.33;1.00;;;;;;;9.26;100.00;98471.41;6168556;28;20321;-77
2023/11/04 09:22:32;;;;;;;1.20;1.10;;;;;;;9.26;100.00;98466.81;6184297;28;20230;-77
2023/11/04 09:25:53;;;;;;;1.00;0.83;;;;;;;9.22;100.00;98475.47;6183553;28;20234;-78
2023/11/04 09:29:14;;;;;;;2.23;1.13;;;;;;;9.45;100.00;98471.63;6178120;28;20237;-79
2023/11/04 09:32:39;;;;;;;0.97;0.97;;;;;;;9.70;100.00;98457.88;6191923;28;20234;-79
2023/11/04 09:36:00;;;;;;;1.47;1.37;;;;;;;9.38;100.00;98470.72;6185939;28;20242;-78
2023/11/04 09:39:22;;;;;;;1.60;0.90;;;;;;;9.34;100.00;98469.44;6166308;28;20328;-78
2023/11/04 09:42:44;;;;;;;2.07;1.63;;;;;;;9.22;100.00;98462.03;6186952;28;20230;-81
2023/11/04 09:46:07;;;;;;;1.07;0.97;;;;;;;9.55;100.00;98460.59;6179041;28;20806;-80
2023/11/04 09:49:28;;;;;;;1.73;1.60;;;;;;;10.10;100.00;98454.53;6171587;28;20233;-79
2023/11/04 09:52:55;;;;;;;2.77;1.83;;;;;;;11.06;100.00;98455.53;6187696;28;20226;-80
2023/11/04 09:56:17;;;;;;;1.33;1.27;;;;;;;10.93;100.00;98446.56;6182010;28;20330;-78
2023/11/04 09:59:39;;;;;;;1.60;1.20;;;;;;;11.23;100.00;98448.78;6185303;28;20229;-78
2023/11/04 10:03:00;;;;;;;1.40;0.80;;;;;;;11.18;100.00;98431.56;6175700;28;20245;-80
2023/11/04 10:06:23;;;;;;;1.20;0.80;;;;;;;10.51;100.00;98450.19;6180196;28;20775;-79
2023/11/04 10:09:43;;;;;;;1.37;1.00;;;;;;;10.08;100.00;98451.22;6182789;28;20426;-82
2023/11/04 10:13:07;;;;;;;1.87;1.07;;;;;;;9.99;100.00;98452.38;6182161;28;20233;-78
2023/11/04 10:16:29;;;;;;;0.93;0.63;;;;;;;10.13;100.00;98443.44;6170455;28;20237;-79
2023/11/04 10:19:50;;;;;;;1.10;0.80;;;;;;;10.45;100.00;98426.75;6170299;28;20242;-79
2023/11/04 10:23:11;;;;;;;1.40;1.00;;;;;;;10.55;100.00;98423.69;6169662;28;22014;-78
2023/11/04 10:26:32;;;;;;;0.73;0.73;;;;;;;10.44;100.00;98444.75;6186825;28;20238;-78
2023/11/04 10:29:54;;;;;;;0.93;0.70;;;;;;;10.36;100.00;98438.66;6187614;28;20218;-77
2023/11/04 10:33:18;;;;;;;0.90;0.90;;;;;;;10.53;100.00;98429.28;6170236;28;20222;-77
2023/11/04 10:36:39;;;;;;;0.90;0.90;;;;;;;11.68;100.00;98411.44;6179302;28;20234;-78
2023/11/04 10:40:05;;;;;;;1.50;1.03;;;;;;;11.93;100.00;98407.13;6181160;28;20596;-76
2023/11/04 10:43:29;;;;;;;1.30;0.70;;;;;;;14.29;100.00;98393.72;6179798;28;20245;-78
2023/11/04 10:46:56;;;;;;;0.73;0.70;;;;;;;14.98;97.84;98380.78;6184769;28;20225;-80
2023/11/04 10:50:23;;;;;;;0.80;0.80;;;;;;;16.05;87.09;98379.19;6168316;28;20308;-80
2023/11/04 10:53:53;;;;;;;2.43;1.00;;;;;;;14.63;91.77;98370.72;6173080;28;20225;-81
2023/11/04 10:57:20;;;;;;;0.65;0.63;;;;;;;18.55;76.95;98361.16;6183456;28;20233;-81
2023/11/04 11:00:42;;;;;;;3.00;1.63;;;;;;;19.87;65.57;98351.78;6180259;28;20229;-78
2023/11/04 11:04:06;;;;;;;1.55;0.80;;;;;;;21.00;59.74;98347.81;6183615;28;20238;-81
2023/11/04 11:07:28;;;;;;;2.53;1.17;;;;;;;20.17;62.49;98353.97;6158986;28;20245;-83
2023/11/04 11:11:02;;;;;;;1.65;0.70;;;;;;;18.65;65.11;98352.34;6380443;23;20334;-82
2023/11/04 11:14:24;;;;;;;0.70;0.55;;;;;;;16.07;74.37;98353.44;6202751;28;20225;-85
2023/11/04 11:17:56;;;;;;;1.08;0.50;;;;;;;18.75;63.93;98347.84;6205284;28;20233;-79
2023/11/04 11:21:21;;;;;;;1.35;0.85;;;;;;;14.43;83.96;98355.44;6190291;28;20253;-82
2023/11/04 11:24:48;;;;;;;1.17;0.93;;;;;;;14.00;92.25;98354.53;6208393;28;20256;-81
2023/11/04 11:28:17;;;;;;;0.98;0.85;;;;;;;13.11;99.12;98352.97;6202181;28;20324;-78
2023/11/04 11:31:38;;;;;;;1.07;0.97;;;;;;;14.75;90.23;98349.94;6210046;28;20225;-80
2023/11/04 11:34:59;;;;;;;0.80;0.80;;;;;;;13.45;93.09;98358.03;6208256;28;20241;-79
2023/11/04 11:38:21;;;;;;;9.53;1.50;;;;;;;12.63;99.73;98357.84;6208270;28;20225;-81
2023/11/04 11:41:43;;;;;;;1.10;0.90;;;;;;;12.18;100.00;98353.34;6204238;28;20225;-84
2023/11/04 11:45:09;;;;;;;0.93;0.93;;;;;;;12.13;100.00;98345.03;6204777;28;20229;-81
2023/11/04 11:48:29;;;;;;;3.27;1.77;;;;;;;12.28;100.00;98342.94;6212487;28;20225;-82
2023/11/04 11:51:54;;;;;;;3.17;1.10;;;;;;;12.37;100.00;98339.00;6209062;28;20594;-82
2023/11/04 11:55:16;;;;;;;0.90;0.90;;;;;;;12.59;100.00;98330.44;6207096;28;20237;-81
2023/11/04 11:58:37;;;;;;;2.97;0.67;;;;;;;11.97;100.00;98317.38;6205608;28;20244;-79
2023/11/04 12:01:58;;;;;;;0.67;0.50;;;;;;;11.73;100.00;98315.31;6209446;28;20498;-81
2023/11/04 12:05:21;;;;;;;1.50;0.90;;;;;;;11.86;100.00;98311.78;6207552;28;20232;-80
2023/11/04 12:08:42;;;;;;;4.83;0.87;;;;;;;11.88;100.00;98304.31;6198790;28;20233;-83
2023/11/04 12:12:05;;;;;;;0.87;0.80;;;;;;;11.84;100.00;98303.91;6204441;28;20241;-83
2023/11/04 12:15:27;;;;;;;0.60;0.60;;;;;;;11.71;100.00;98295.81;6201080;28;20229;-83
2023/11/04 12:18:48;;;;;;;0.70;0.70;;;;;;;11.85;100.00;98286.66;6202387;28;20237;-82
2023/11/04 12:22:10;;;;;;;1.60;0.67;;;;;;;11.78;100.00;98287.72;6206491;28;20567;-81
2023/11/04 12:25:32;;;;;;;0.70;0.70;;;;;;;12.31;100.00;98278.50;6195033;28;20615;-73
2023/11/04 12:28:57;;;;;;;1.60;0.97;;;;;;;12.31;100.00;98288.47;6196473;28;20221;-72
2023/11/04 12:32:20;;;;;;;2.07;1.37;;;;;;;12.74;100.00;98268.84;6192679;28;20229;-70
2023/11/04 12:35:42;;;;;;;1.03;0.80;;;;;;;12.61;100.00;98265.34;6195498;28;20230;-71
2023/11/04 12:39:03;;;;;;;0.87;0.73;;;;;;;12.38;100.00;98271.25;6172313;28;20237;-71
2023/11/04 12:42:26;;;;;;;0.70;0.70;;;;;;;12.14;100.00;98257.56;6197456;28;20226;-73
2023/11/04 12:45:48;;;;;;;0.83;0.60;;;;;;;12.55;100.00;98256.22;6198637;28;20230;-72
2023/11/04 12:49:10;;;;;;;1.77;0.87;;;;;;;12.59;100.00;98249.34;6199674;28;20241;-69
2023/11/04 12:52:31;;;;;;;0.80;0.77;;;;;;;12.42;100.00;98239.22;6201096;28;20690;-69
2023/11/04 12:55:54;;;;;;;0.50;0.50;;;;;;;12.67;100.00;98248.28;6199017;28;20615;-68
2023/11/04 12:59:15;;;;;;;2.40;0.90;;;;;;;12.40;100.00;98241.28;6200723;28;20233;-71
2023/11/04 13:02:37;;;;;;;1.10;0.93;;;;;;;12.15;100.00;98240.31;6202540;28;20222;-69
2023/11/04 13:05:58;;;;;;;0.53;0.53;;;;;;;11.98;100.00;98240.75;6202751;28;20238;-70
2023/11/04 13:09:19;;;;;;;1.13;0.93;;;;;;;11.96;100.00;98244.72;6195272;28;20498;-70
2023/11/04 13:12:40;;;;;;;0.57;0.50;;;;;;;11.88;100.00;98228.72;6198860;28;20351;-70
2023/11/04 13:16:01;;;;;;;1.60;1.10;;;;;;;12.19;100.00;98236.16;6194166;28;20236;-69
2023/11/04 13:19:24;;;;;;;3.10;1.27;;;;;;;12.31;100.00;98227.19;6193064;28;20240;-70
2023/11/04 13:22:45;;;;;;;1.17;1.07;;;;;;;11.97;100.00;98228.28;6200206;28;20238;-71
2023/11/04 13:26:06;;;;;;;1.40;0.57;;;;;;;11.58;100.00;98231.00;6194135;28;20233;-69
2023/11/04 13:29:27;;;;;;;1.80;0.87;;;;;;;11.61;100.00;98232.44;6198822;28;20539;-69
2023/11/04 13:32:48;;;;;;;1.07;0.83;;;;;;;11.57;100.00;98218.56;6203729;28;20229;-69
2023/11/04 13:36:10;;;;;;;0.80;0.80;;;;;;;11.67;100.00;98220.84;6197039;28;20614;-69
2023/11/04 13:39:31;;;;;;;1.07;0.90;;;;;;;11.36;100.00;98213.34;6199706;28;20241;-68
2023/11/04 13:42:52;;;;;;;0.50;0.50;;;;;;;11.45;100.00;98213.97;6198433;28;20234;-65
2023/11/04 13:46:13;;;;;;;0.70;0.70;;;;;;;11.49;100.00;98202.56;6187517;28;20221;-69
2023/11/04 13:49:34;;;;;;;0.93;0.80;;;;;;;11.56;100.00;98202.56;6197657;28;20229;-68
2023/11/04 13:52:59;;;;;;;1.67;1.20;;;;;;;11.63;100.00;98200.69;6197158;28;20229;-69
2023/11/04 13:56:21;;;;;;;5.40;1.20;;;;;;;11.54;100.00;98197.38;6176037;28;20646;-68
2023/11/04 13:59:43;;;;;;;0.77;0.77;;;;;;;11.79;100.00;98194.88;6193131;28;20256;-68
2023/11/04 14:03:04;;;;;;;1.47;0.60;;;;;;;11.52;100.00;98183.25;6198821;28;20312;-69
2023/11/04 14:06:25;;;;;;;2.03;0.73;;;;;;;11.58;100.00;98182.41;6200354;28;20229;-71
2023/11/04 14:09:47;;;;;;;0.53;0.53;;;;;;;11.59;100.00;98180.56;6200376;28;20599;-70
2023/11/04 14:13:08;;;;;;;1.47;0.67;;;;;;;11.52;100.00;98174.31;6202614;28;20249;-72
2023/11/04 14:16:29;;;;;;;2.53;0.77;;;;;;;11.69;100.00;98170.19;6193190;28;20605;-69
2023/11/04 14:19:51;;;;;;;2.10;1.20;;;;;;;11.51;100.00;98170.81;6205523;28;20253;-76
2023/11/04 14:23:12;;;;;;;0.80;0.80;;;;;;;11.49;100.00;98150.47;6196233;28;20234;-72
2023/11/04 14:26:34;;;;;;;0.50;0.50;;;;;;;11.33;100.00;98140.13;6195657;28;20615;-68
2023/11/04 14:29:55;;;;;;;0.70;0.70;;;;;;;11.12;100.00;98130.34;6197320;28;20229;-66
2023/11/04 14:33:19;;;;;;;0.73;0.73;;;;;;;11.18;100.00;98143.03;6193384;28;20713;-67
2023/11/04 14:36:40;;;;;;;0.50;0.43;;;;;;;11.22;100.00;98142.38;6194095;28;20241;-66
2023/11/04 14:40:02;;;;;;;0.60;0.60;;;;;;;11.42;100.00;98141.56;6192944;28;20253;-67
2023/11/04 14:43:24;;;;;;;0.60;0.60;;;;;;;11.20;100.00;98133.66;6199435;28;20311;-70
2023/11/04 14:46:45;;;;;;;0.87;0.87;;;;;;;11.17;100.00;98134.09;6193974;28;20229;-70
2023/11/04 14:50:07;;;;;;;4.80;0.90;;;;;;;10.97;100.00;98130.53;6194651;28;20225;-68
2023/11/04 14:53:29;;;;;;;0.53;0.53;;;;;;;10.96;100.00;98123.50;6187752;28;20633;-68
2023/11/04 14:56:49;;;;;;;1.20;1.10;;;;;;;11.02;100.00;98127.25;6190802;28;20233;-70
2023/11/04 15:00:16;;;;;;;0.60;0.60;;;;;;;11.23;100.00;98121.66;6190826;28;20234;-70
2023/11/04 15:03:40;;;;;;;1.00;0.90;;;;;;;11.18;100.00;98118.75;6190936;28;20229;-70
2023/11/04 15:07:00;;;;;;;1.10;0.70;;;;;;;11.20;100.00;98112.09;6191146;28;20235;-70
2023/11/04 15:10:21;;;;;;;1.03;0.80;;;;;;;11.32;100.00;98119.56;6205315;28;20236;-68
2023/11/04 15:13:42;;;;;;;3.97;0.83;;;;;;;11.16;100.00;98105.47;6193125;28;20538;-67
2023/11/04 15:17:05;;;;;;;1.07;0.93;;;;;;;11.05;100.00;98114.19;6197506;28;20236;-69
2023/11/04 15:20:25;;;;;;;1.37;1.10;;;;;;;10.94;100.00;98090.53;6190580;28;20229;-67
2023/11/04 15:23:46;;;;;;;0.87;0.77;;;;;;;10.88;100.00;98095.94;6188093;28;20249;-68
2023/11/04 15:27:07;;;;;;;1.23;0.80;;;;;;;10.78;100.00;98085.56;6184785;28;20234;-68
2023/11/04 15:30:28;;;;;;;0.50;0.50;;;;;;;10.77;100.00;98088.44;6198058;28;20232;-69
2023/11/04 15:33:50;;;;;;;0.63;0.60;;;;;;;10.74;100.00;98080.78;6193622;28;20229;-70
2023/11/04 15:37:11;;;;;;;0.83;0.50;;;;;;;10.69;100.00;98081.41;6191625;28;20632;-69
2023/11/04 15:40:32;;;;;;;0.70;0.70;;;;;;;10.65;100.00;98069.38;6197259;28;20234;-69
2023/11/04 15:43:53;;;;;;;1.80;1.00;;;;;;;10.65;100.00;98071.25;6190627;28;20265;-70
2023/11/04 15:47:14;;;;;;;1.80;1.20;;;;;;;10.61;100.00;98054.66;6193266;28;20234;-71